Ana Sayfa
METAR-TAF:

METAR-TAF

Havaalanları :

Henri Coandă Uluslararası Havalimanı

Bükreş, Romanya

Enlem: 44-33N, Boylam: 026-06E, yükseklik: 95 m

Güncel hava durumu gözlemi

Rapor saat 17:30 UTC de 16 dakika önce yapıldı.
Rüzgar kuzeydoğudan 9 kt, kuzey ve doğu/kuzeydoğu arasında değişken
Sıcaklık 18°C
Nem 42%
Basınç 1020 hPa
Görüş mesafesi 10 km veya daha fazla
1500 m altında bulut yok ve kümülonimbus yok

METAR: LROP 191730Z 04009KT 010V070 CAVOK 18/05 Q1020 NOSIG

Saat: 20:46 (17:46 UTC)

Tahmin

Rapor saat 17:00 UTC de 46 dakika önce yapıldı.
Ayın 19'si saat 18 UTC'den ayın 20'si saat 18 UTC'ye kadar geçerli Tahmin
Rüzgar değişken yönden 4 kt
Görüş mesafesi 10 km veya daha fazla
1500 m altında bulut yok ve kümülonimbus yok
Geçici
ayın 19'si saat 23 UTC'den ayın 20'si saat 04 UTC'ye kadar
Rüzgar kuzey/kuzeydoğudan 10 kt

TAF: LROP 191700Z 1918/2018 VRB04KT CAVOK TEMPO 1923/2004 03010KT

4.000'den fazla havaalanı için hava durumu gözlemleri ve tahminleri (METAR ve TAF raporları).

Kullanılabilir istasyonlar harita üzerinde sarı ve kırmızı noktalarla gösterilir.

İstasyonun adını görmek için fareyi noktanın üzerinde gezdirin.

Sonrasında hava gözlem ve tahminlerini görmek için tıklayın.

Haritayı değiştirmek için: yaklaştırmak için siyah artı işaretli yeşil düğmeye ve uzaklaştırmak için de eksi işaretli düğmeye hızla tıklayın; bitişik haritalar için yeşil okları kullanın.


METAR-TAF: